createdAt,value
2022-11-20T00:00:08.824Z,100342.38
2022-11-20T00:02:35.673Z,100340.03
2022-11-20T00:05:02.950Z,100333.81
2022-11-20T00:07:30.606Z,100342.13
2022-11-20T00:09:57.909Z,100343.91
2022-11-20T00:12:24.992Z,100331.41
2022-11-20T00:14:53.847Z,100337.72
2022-11-20T00:17:21.009Z,100330.63
2022-11-20T00:19:48.292Z,100321.66
2022-11-20T00:22:15.907Z,100323.41
2022-11-20T00:24:43.396Z,100313.69
2022-11-20T00:27:10.499Z,100319.13
2022-11-20T00:29:37.892Z,100312.06
2022-11-20T00:32:05.559Z,100311.19
2022-11-20T00:34:33.148Z,100307.66
2022-11-20T00:37:00.980Z,100304.09
2022-11-20T00:39:28.668Z,100303.25
2022-11-20T00:41:56.738Z,100305.03
2022-11-20T00:44:24.516Z,100305.13
2022-11-20T00:46:52.203Z,100302.59
2022-11-20T00:49:20.289Z,100298.09
2022-11-20T00:51:48.560Z,100297.22
2022-11-20T00:54:17.424Z,100293.66
2022-11-20T00:57:09.829Z,100293.53
2022-11-20T00:59:38.244Z,100289.34
2022-11-20T01:02:06.391Z,100285.06
2022-11-20T01:04:34.187Z,100285.19
2022-11-20T01:07:02.205Z,100279.56
2022-11-20T01:09:30.004Z,100279.69
2022-11-20T01:11:59.548Z,100274.31
2022-11-20T01:14:27.264Z,100273.09
2022-11-20T01:16:56.538Z,100266.94
2022-11-20T01:19:26.900Z,100262.97
2022-11-20T01:21:56.055Z,100275.34
2022-11-20T01:24:24.180Z,100264.69
2022-11-20T01:26:53.018Z,100266.25
2022-11-20T01:29:24.444Z,100260.09
2022-11-20T01:31:54.740Z,100252.19
2022-11-20T01:34:24.374Z,100252.63
2022-11-20T01:36:52.666Z,100246.72
2022-11-20T01:39:23.435Z,100249.09
2022-11-20T01:42:10.668Z,100242.72
2022-11-20T01:44:51.663Z,100235.53
2022-11-20T01:47:33.454Z,100232.06
2022-11-20T01:50:16.069Z,100220.56
2022-11-20T01:52:52.198Z,100221.16
2022-11-20T01:55:26.764Z,100213.19
2022-11-20T01:57:54.679Z,100222.09
2022-11-20T02:00:23.376Z,100215.81
2022-11-20T02:02:58.792Z,100211.47
2022-11-20T02:05:53.326Z,100208.88
2022-11-20T02:08:21.628Z,100211.41
2022-11-20T02:10:55.672Z,100200.84
2022-11-20T02:13:41.727Z,100203.16
2022-11-20T02:16:13.668Z,100190.66
2022-11-20T02:18:42.070Z,100187.31
2022-11-20T02:21:12.282Z,100193.38
2022-11-20T02:23:58.318Z,100208.00
2022-11-20T02:26:28.584Z,100199.63
2022-11-20T02:28:56.452Z,100199.75
2022-11-20T02:31:28.004Z,100203.38
2022-11-20T02:33:57.768Z,100199.09
2022-11-20T02:36:29.729Z,100194.69
2022-11-20T02:38:57.115Z,100190.00
2022-11-20T02:41:37.953Z,100195.78
2022-11-20T02:44:06.627Z,100184.34
2022-11-20T02:46:34.272Z,100190.56
2022-11-20T02:49:03.785Z,100192.31
2022-11-20T02:51:30.913Z,100179.91
2022-11-20T02:54:24.224Z,100181.50
2022-11-20T02:56:51.549Z,100175.31
2022-11-20T02:59:19.199Z,100178.78
2022-11-20T03:01:48.151Z,100167.63
2022-11-20T03:04:15.382Z,100172.22
2022-11-20T03:06:43.001Z,100164.53
2022-11-20T03:09:10.659Z,100169.56
2022-11-20T03:12:03.279Z,100173.13
2022-11-20T03:14:30.640Z,100174.56
2022-11-20T03:16:58.067Z,100169.69
2022-11-20T03:19:25.757Z,100176.41
2022-11-20T03:21:53.231Z,100178.13
2022-11-20T03:24:45.086Z,100173.78
2022-11-20T03:27:11.821Z,100177.19
2022-11-20T03:29:38.850Z,100171.97
2022-11-20T03:32:06.443Z,100178.53
2022-11-20T03:34:33.858Z,100167.03
2022-11-20T03:37:00.712Z,100168.41
2022-11-20T03:39:27.971Z,100161.69
2022-11-20T03:41:55.534Z,100160.53
2022-11-20T03:44:23.207Z,100155.94
2022-11-20T03:46:50.906Z,100156.03
2022-11-20T03:49:18.728Z,100162.34
2022-11-20T03:51:48.548Z,100161.47
2022-11-20T03:54:16.371Z,100155.56
2022-11-20T03:56:43.400Z,100158.66
2022-11-20T03:59:12.064Z,100158.72
2022-11-20T04:01:39.625Z,100154.19
2022-11-20T04:04:06.984Z,100147.06
2022-11-20T04:06:38.856Z,100150.03
2022-11-20T04:09:06.772Z,100156.41
2022-11-20T04:11:36.419Z,100156.28
2022-11-20T04:14:06.719Z,100150.84
2022-11-20T04:16:36.530Z,100164.19
2022-11-20T04:19:06.650Z,100154.22
2022-11-20T04:21:34.192Z,100153.22
2022-11-20T04:24:02.086Z,100157.13
2022-11-20T04:26:30.604Z,100154.72
2022-11-20T04:28:58.541Z,100156.66
2022-11-20T04:31:29.149Z,100156.00
2022-11-20T04:33:56.992Z,100151.53
2022-11-20T04:36:27.191Z,100159.47
2022-11-20T04:39:03.375Z,100168.41
2022-11-20T04:41:33.528Z,100166.69
2022-11-20T04:44:04.197Z,100165.88
2022-11-20T04:46:38.076Z,100167.56
2022-11-20T04:49:05.503Z,100161.34
2022-11-20T04:51:33.165Z,100162.13
2022-11-20T04:56:54.208Z,100154.34
2022-11-20T04:59:21.552Z,100159.72
2022-11-20T05:01:51.294Z,100062.75
2022-11-20T05:04:18.634Z,100056.47
2022-11-20T05:06:46.794Z,100056.72
2022-11-20T05:09:14.311Z,100050.28
2022-11-20T05:11:41.261Z,100026.38
2022-11-20T05:14:08.327Z,100022.91
2022-11-20T05:16:36.523Z,100019.28
2022-11-20T05:19:03.804Z,100023.75
2022-11-20T05:21:33.355Z,100033.59
2022-11-20T05:24:00.293Z,100033.59
2022-11-20T05:26:27.279Z,100060.38
2022-11-20T05:28:57.828Z,100073.81
2022-11-20T05:31:28.145Z,100073.81
2022-11-20T05:33:57.344Z,100088.97
2022-11-20T05:36:24.869Z,100092.53
2022-11-20T05:38:54.432Z,100082.78
2022-11-20T05:41:23.868Z,100081.84
2022-11-20T05:46:45.312Z,100070.41
2022-11-20T05:49:12.333Z,100067.03
2022-11-20T05:51:41.393Z,100065.84
2022-11-20T05:54:08.267Z,100065.72
2022-11-20T05:56:36.098Z,100063.28
2022-11-20T05:59:02.953Z,100061.59
2022-11-20T06:01:29.965Z,100060.59
2022-11-20T06:03:56.992Z,100052.50
2022-11-20T06:06:24.273Z,100055.41
2022-11-20T06:08:51.513Z,100055.41
2022-11-20T06:11:20.291Z,100063.28
2022-11-20T06:13:48.150Z,100054.38
2022-11-20T06:16:18.479Z,100049.25
2022-11-20T06:18:46.145Z,100047.56
2022-11-20T06:21:21.307Z,100051.97
2022-11-20T06:23:49.600Z,100048.59
2022-11-20T06:26:23.292Z,100048.72
2022-11-20T06:28:51.467Z,100042.44
2022-11-20T06:31:21.872Z,100043.38
2022-11-20T06:33:49.803Z,100044.09
2022-11-20T06:36:19.392Z,100043.03
2022-11-20T06:38:46.611Z,100045.78
2022-11-20T06:41:16.207Z,100034.16
2022-11-20T06:43:43.824Z,100021.59
2022-11-20T06:46:13.060Z,100028.81
2022-11-20T06:48:40.690Z,100030.53
2022-11-20T06:51:08.774Z,100022.59
2022-11-20T06:53:36.493Z,100023.59
2022-11-20T06:56:03.920Z,100020.84
2022-11-20T06:58:32.974Z,100016.66
2022-11-20T07:01:05.533Z,100018.47
2022-11-20T07:03:32.434Z,100023.81
2022-11-20T07:06:01.095Z,100022.16
2022-11-20T07:08:28.300Z,100030.69
2022-11-20T07:11:01.428Z,100027.13
2022-11-20T07:13:29.551Z,100026.03
2022-11-20T07:15:59.951Z,100030.06
2022-11-20T07:18:26.716Z,100024.81
2022-11-20T07:20:54.164Z,100029.34
2022-11-20T07:23:21.114Z,100027.25
2022-11-20T07:25:47.927Z,100024.28
2022-11-20T07:28:15.437Z,100008.56
2022-11-20T07:30:42.647Z,100002.97
2022-11-20T07:33:09.511Z,100003.31
2022-11-20T07:35:36.935Z,100006.13
2022-11-20T07:38:03.749Z,100011.72
2022-11-20T07:40:30.726Z,100009.91
2022-11-20T07:42:57.661Z,100009.75
2022-11-20T07:45:25.368Z,100020.59
2022-11-20T07:47:56.005Z,100009.47
2022-11-20T07:50:23.943Z,100017.84
2022-11-20T07:53:21.619Z,100013.66
2022-11-20T07:55:49.308Z,100010.94
2022-11-20T07:58:16.188Z,100022.19
2022-11-20T08:00:43.076Z,100012.22
2022-11-20T08:03:10.146Z,100015.91
2022-11-20T08:05:38.382Z,100009.97
2022-11-20T08:08:33.688Z,100019.06
2022-11-20T08:11:19.611Z,100025.84
2022-11-20T08:14:05.134Z,100028.25
2022-11-20T08:16:32.521Z,100023.03
2022-11-20T08:19:03.570Z,100021.50
2022-11-20T08:21:38.175Z,100008.53
2022-11-20T08:24:06.325Z,100005.47
2022-11-20T08:26:33.992Z,100001.94
2022-11-20T08:29:01.123Z,99996.84
2022-11-20T08:31:28.935Z,99999.13
2022-11-20T08:33:56.784Z,99998.72
2022-11-20T08:36:24.973Z,99991.47
2022-11-20T08:38:54.242Z,99984.81
2022-11-20T08:41:25.007Z,99985.59
2022-11-20T08:43:53.602Z,99989.97
2022-11-20T08:46:46.233Z,99997.97
2022-11-20T08:49:15.072Z,100003.91
2022-11-20T08:51:42.728Z,99997.94
2022-11-20T08:54:09.946Z,100006.94
2022-11-20T08:57:01.928Z,100007.50
2022-11-20T09:00:03.753Z,100007.72
2022-11-20T09:02:16.463Z,100008.44
2022-11-20T09:04:43.292Z,99995.31
2022-11-20T09:07:10.279Z,100005.69
2022-11-20T09:09:37.230Z,99995.44
2022-11-20T09:12:04.209Z,100014.50
2022-11-20T09:14:31.389Z,100008.53
2022-11-20T09:17:23.867Z,100011.03
2022-11-20T09:19:50.796Z,100017.25
2022-11-20T09:22:17.763Z,100021.16
2022-11-20T09:24:44.581Z,100019.44
2022-11-20T09:27:11.495Z,100017.53
2022-11-20T09:29:38.438Z,100016.44
2022-11-20T09:32:06.157Z,100017.88
2022-11-20T09:34:33.236Z,100008.06
2022-11-20T09:37:03.134Z,100013.13
2022-11-20T09:39:33.804Z,100012.09
2022-11-20T09:42:23.890Z,100015.22
2022-11-20T09:44:57.995Z,100010.94
2022-11-20T09:47:47.339Z,100003.84
2022-11-20T09:50:21.290Z,100002.31
2022-11-20T09:53:17.975Z,100013.03
2022-11-20T09:55:47.008Z,100015.16
2022-11-20T09:58:48.240Z,100018.06
2022-11-20T10:01:21.202Z,100014.28
2022-11-20T10:04:15.006Z,100018.84
2022-11-20T10:07:31.462Z,100009.41
2022-11-20T10:09:56.583Z,100011.25
2022-11-20T10:12:52.358Z,99998.81
2022-11-20T10:15:47.119Z,99991.66
2022-11-20T10:18:42.220Z,99999.53
2022-11-20T10:21:20.173Z,99990.75
2022-11-20T10:24:11.881Z,99996.22
2022-11-20T10:26:50.878Z,99993.06
2022-11-20T10:29:20.287Z,99993.91
2022-11-20T10:32:03.531Z,99995.50
2022-11-20T10:34:45.907Z,99995.34
2022-11-20T10:37:19.374Z,99997.84
2022-11-20T10:40:26.447Z,99992.03
2022-11-20T10:43:08.660Z,99993.63
2022-11-20T10:45:45.455Z,99984.34
2022-11-20T10:48:26.600Z,99987.03
2022-11-20T10:51:05.523Z,99995.91
2022-11-20T10:54:00.731Z,99991.50
2022-11-20T10:56:49.870Z,100014.22
2022-11-20T10:59:55.046Z,100030.88
2022-11-20T11:02:32.883Z,100039.16
2022-11-20T11:05:08.139Z,100036.63
2022-11-20T11:07:41.237Z,100046.16
2022-11-20T11:10:43.979Z,100047.03
2022-11-20T11:13:32.016Z,100053.66
2022-11-20T11:16:02.489Z,100061.59
2022-11-20T11:18:35.225Z,100052.25
2022-11-20T11:21:05.273Z,100059.63
2022-11-20T11:23:42.102Z,100061.41
2022-11-20T11:26:22.126Z,100066.38
2022-11-20T11:28:57.357Z,100057.13
2022-11-20T11:31:34.751Z,100056.94
2022-11-20T11:34:19.833Z,100068.09
2022-11-20T11:36:59.759Z,100077.34
2022-11-20T11:39:30.111Z,100067.94
2022-11-20T11:41:58.868Z,100092.44
2022-11-20T11:44:49.925Z,100105.41
2022-11-20T11:47:25.853Z,100142.44
2022-11-20T11:50:15.263Z,100232.84
2022-11-20T11:52:51.845Z,100241.09
2022-11-20T11:55:26.636Z,100251.47
2022-11-20T11:58:16.296Z,100251.84
2022-11-20T12:00:52.883Z,100260.53
2022-11-20T12:03:51.305Z,100261.63
2022-11-20T12:06:18.811Z,100268.03
2022-11-20T12:09:46.369Z,100274.25
2022-11-20T12:12:19.962Z,100255.72
2022-11-20T12:14:51.362Z,100264.25
2022-11-20T12:17:18.936Z,100262.03
2022-11-20T12:19:45.718Z,100274.06
2022-11-20T12:22:31.006Z,100283.25
2022-11-20T12:25:21.455Z,100305.56
2022-11-20T12:28:22.820Z,100310.31
2022-11-20T12:31:07.629Z,100321.88
2022-11-20T12:33:43.371Z,100323.09
2022-11-20T12:36:19.026Z,100329.97
2022-11-20T12:39:00.939Z,100331.50
2022-11-20T12:42:05.928Z,100340.41
2022-11-20T12:45:12.227Z,100355.84
2022-11-20T12:48:00.681Z,100369.78
2022-11-20T12:51:00.318Z,100391.19
2022-11-20T12:54:14.623Z,100414.56
2022-11-20T12:57:19.932Z,100442.13
2022-11-20T13:00:01.313Z,100464.97
2022-11-20T13:03:05.555Z,100490.06
2022-11-20T13:05:52.002Z,100497.16
2022-11-20T13:08:45.238Z,100511.97
2022-11-20T13:12:03.169Z,100523.63
2022-11-20T13:14:36.639Z,100535.22
2022-11-20T13:17:31.878Z,100544.72
2022-11-20T13:20:02.341Z,100551.84
2022-11-20T13:22:43.044Z,100570.25
2022-11-20T13:25:30.078Z,100588.25
2022-11-20T13:28:07.980Z,100596.41
2022-11-20T13:30:36.054Z,100605.72
2022-11-20T13:33:10.365Z,100616.59
2022-11-20T13:35:42.325Z,100622.91
2022-11-20T13:38:15.687Z,100634.81
2022-11-20T13:40:53.018Z,100638.19
2022-11-20T13:43:28.016Z,100643.56
2022-11-20T13:46:03.593Z,100663.19
2022-11-20T13:48:34.117Z,100669.78
2022-11-20T13:51:01.258Z,100680.84
2022-11-20T13:53:43.429Z,100686.88
2022-11-20T13:56:25.180Z,100693.44
2022-11-20T13:59:05.471Z,100700.16
2022-11-20T14:01:33.722Z,100703.38
2022-11-20T14:04:07.815Z,100709.75
2022-11-20T14:06:42.103Z,100710.56
2022-11-20T14:09:30.313Z,100711.28
2022-11-20T14:11:57.850Z,100723.69
2022-11-20T14:14:29.688Z,100726.06
2022-11-20T14:17:24.513Z,100734.59
2022-11-20T14:19:53.891Z,100734.06
2022-11-20T14:22:26.896Z,100742.53
2022-11-20T14:25:07.946Z,100743.28
2022-11-20T14:27:38.522Z,100752.47
2022-11-20T14:30:06.477Z,100753.13
2022-11-20T14:32:36.288Z,100746.28
2022-11-20T14:35:16.022Z,100748.38
2022-11-20T14:37:42.860Z,100747.25
2022-11-20T14:40:36.877Z,100753.47
2022-11-20T14:43:19.575Z,100750.44
2022-11-20T14:45:55.892Z,100748.94
2022-11-20T14:48:28.788Z,100752.88
2022-11-20T14:50:55.465Z,100741.47
2022-11-20T14:53:26.822Z,100744.41
2022-11-20T14:56:01.839Z,100742.13
2022-11-20T14:58:32.888Z,100741.53
2022-11-20T15:01:08.533Z,100743.69
2022-11-20T15:03:38.492Z,100747.78
2022-11-20T15:06:07.162Z,100745.25
2022-11-20T15:08:34.106Z,100738.25
2022-11-20T15:11:01.175Z,100734.34
2022-11-20T15:13:30.955Z,100733.31
2022-11-20T15:15:59.849Z,100743.38
2022-11-20T15:18:31.067Z,100745.47
2022-11-20T15:21:01.261Z,100738.50
2022-11-20T15:23:28.730Z,100728.97
2022-11-20T15:25:56.423Z,100727.34
2022-11-20T15:28:43.954Z,100726.78
2022-11-20T15:31:16.067Z,100728.59
2022-11-20T15:33:43.562Z,100724.22
2022-11-20T15:36:10.895Z,100732.56
2022-11-20T15:38:38.144Z,100727.22
2022-11-20T15:41:05.545Z,100722.72
2022-11-20T15:43:32.475Z,100712.97
2022-11-20T15:46:13.900Z,100696.81
2022-11-20T15:48:47.905Z,100685.97
2022-11-20T15:51:41.187Z,100675.88
2022-11-20T15:54:23.004Z,100672.34
2022-11-20T15:56:53.234Z,100662.59
2022-11-20T15:59:21.032Z,100649.97
2022-11-20T16:01:47.930Z,100635.47
2022-11-20T16:04:17.562Z,100630.88
2022-11-20T16:06:44.490Z,100625.44
2022-11-20T16:09:11.460Z,100609.19
2022-11-20T16:11:38.496Z,100594.81
2022-11-20T16:14:26.931Z,100589.47
2022-11-20T16:16:53.784Z,100587.47
2022-11-20T16:19:20.905Z,100583.72
2022-11-20T16:21:47.860Z,100579.00
2022-11-20T16:24:16.769Z,100568.78
2022-11-20T16:26:43.996Z,100571.47
2022-11-20T16:29:11.283Z,100572.38
2022-11-20T16:31:38.512Z,100566.19
2022-11-20T16:34:11.911Z,100552.72
2022-11-20T16:36:42.059Z,100557.25
2022-11-20T16:39:09.220Z,100561.00
2022-11-20T16:41:36.471Z,100556.78
2022-11-20T16:44:08.260Z,100552.50
2022-11-20T16:46:35.363Z,100561.50
2022-11-20T16:49:05.039Z,100567.75
2022-11-20T16:51:35.529Z,100552.50
2022-11-20T16:54:06.767Z,100545.38
2022-11-20T16:56:34.502Z,100538.09
2022-11-20T16:59:02.704Z,100537.84
2022-11-20T17:01:31.321Z,100535.16
2022-11-20T17:04:04.342Z,100530.69
2022-11-20T17:15:43.902Z,100516.19
2022-11-20T17:18:14.277Z,100519.09
2022-11-20T17:20:43.316Z,100511.31
2022-11-20T17:23:11.529Z,100505.38
2022-11-20T17:25:39.558Z,100511.81
2022-11-20T17:28:07.744Z,100500.84
2022-11-20T17:30:37.994Z,100499.91
2022-11-20T17:33:06.028Z,100509.53
2022-11-20T17:35:37.622Z,100504.44
2022-11-20T17:38:06.025Z,100496.72
2022-11-20T17:40:34.099Z,100499.56
2022-11-20T17:43:14.034Z,100503.47
2022-11-20T17:45:43.239Z,100498.25
2022-11-20T17:48:11.300Z,100489.41
2022-11-20T17:59:12.601Z,100461.19
2022-11-20T18:01:43.358Z,100464.22
2022-11-20T18:04:12.471Z,100455.50
2022-11-20T18:06:41.238Z,100450.44
2022-11-20T18:09:09.649Z,100451.41
2022-11-20T18:11:40.391Z,100448.00
2022-11-20T18:14:29.154Z,100438.47
2022-11-20T18:17:09.222Z,100432.41
2022-11-20T20:08:20.902Z,100274.19
2022-11-20T20:34:36.748Z,100218.66
2022-11-20T20:37:32.443Z,100219.69
2022-11-20T20:40:15.437Z,100212.44
2022-11-20T20:56:11.682Z,100192.88
2022-11-20T20:58:39.151Z,100186.34
2022-11-20T21:01:34.622Z,100176.50
2022-11-20T21:27:58.826Z,100155.31
